createdAt,value
2018-03-18T00:23:55.506Z,45.00
2018-03-18T00:26:23.036Z,45.20
2018-03-18T00:28:50.579Z,45.00
2018-03-18T00:31:18.910Z,45.00
2018-03-18T00:33:46.438Z,45.00
2018-03-18T00:36:13.992Z,44.70
2018-03-18T00:38:41.563Z,44.80
2018-03-18T00:41:09.124Z,45.00
2018-03-18T00:43:36.678Z,45.00
2018-03-18T00:46:04.225Z,45.00
2018-03-18T00:48:31.769Z,45.10
2018-03-18T00:50:59.328Z,45.00
2018-03-18T00:53:27.334Z,44.80
2018-03-18T00:55:54.897Z,44.90
2018-03-18T00:58:22.671Z,44.70
2018-03-18T01:00:50.209Z,44.90
2018-03-18T01:03:17.750Z,44.70
2018-03-18T01:05:45.288Z,44.20
2018-03-18T01:08:12.827Z,44.00
2018-03-18T01:10:40.368Z,43.70
2018-03-18T02:19:56.800Z,42.90
2018-03-18T02:22:24.329Z,42.90
2018-03-18T02:24:51.872Z,42.60
2018-03-18T02:27:20.169Z,42.80
2018-03-18T02:29:47.708Z,42.80
2018-03-18T02:32:15.248Z,42.90
2018-03-18T02:34:42.892Z,42.50
2018-03-18T02:37:10.469Z,42.60
2018-03-18T02:39:38.102Z,42.80
2018-03-18T02:42:05.640Z,42.70
2018-03-18T02:44:33.318Z,42.30
2018-03-18T02:47:00.862Z,42.30
2018-03-18T02:49:28.406Z,42.20
2018-03-18T02:51:55.966Z,42.60
2018-03-18T02:54:24.376Z,42.70
2018-03-18T02:56:51.933Z,42.70
2018-03-18T02:59:19.480Z,42.70
2018-03-18T03:01:47.021Z,42.50
2018-03-18T03:04:15.330Z,42.20
2018-03-18T03:06:42.866Z,42.20
2018-03-18T03:09:11.232Z,42.40
2018-03-18T03:11:38.830Z,42.40
2018-03-18T10:25:36.052Z,25.10
2018-03-18T10:28:03.573Z,24.50
2018-03-18T10:30:31.112Z,24.40
2018-03-18T10:33:01.521Z,24.30
2018-03-18T10:35:29.058Z,25.10
2018-03-18T10:37:56.606Z,25.40
2018-03-18T10:40:24.907Z,25.00
2018-03-18T10:42:52.445Z,24.90
2018-03-18T10:45:23.740Z,25.10
2018-03-18T10:47:51.336Z,25.00
2018-03-18T10:50:25.909Z,24.60
2018-03-18T10:52:53.460Z,24.30
2018-03-18T10:55:23.707Z,24.80
2018-03-18T10:57:51.273Z,25.00
2018-03-18T11:00:21.587Z,24.60
2018-03-18T11:02:50.041Z,25.00
2018-03-18T11:05:17.950Z,25.00
2018-03-18T11:07:45.546Z,25.50
2018-03-18T11:10:13.079Z,24.50
2018-03-18T12:19:04.003Z,14.70
2018-03-18T14:20:18.346Z,16.60
2018-03-18T15:20:21.245Z,17.30
2018-03-18T17:12:51.861Z,32.90
2018-03-18T18:19:07.873Z,46.00
2018-03-18T18:21:36.176Z,46.40
2018-03-18T18:24:03.719Z,46.40
2018-03-18T18:26:31.257Z,46.40
2018-03-18T18:28:58.873Z,46.60
2018-03-18T18:31:26.407Z,46.60
2018-03-18T18:33:53.942Z,46.80
2018-03-18T18:36:21.884Z,47.10
2018-03-18T18:38:50.188Z,47.40
2018-03-18T18:41:17.741Z,47.40
2018-03-18T18:43:45.299Z,47.80
2018-03-18T18:46:12.885Z,48.00
2018-03-18T18:48:40.489Z,47.90
2018-03-18T18:51:08.953Z,48.10
2018-03-18T18:53:36.488Z,48.20
2018-03-18T18:56:04.035Z,48.50
2018-03-18T18:58:32.355Z,49.10
2018-03-18T19:00:59.934Z,49.10
2018-03-18T19:03:27.494Z,49.00
2018-03-18T19:05:55.022Z,49.30
2018-03-18T19:08:22.554Z,49.50
2018-03-18T19:10:51.141Z,50.30
2018-03-18T19:13:18.689Z,50.30
2018-03-18T19:19:01.752Z,51.00
2018-03-18T19:21:30.070Z,51.10
2018-03-18T20:15:58.653Z,54.60
2018-03-18T20:18:26.963Z,55.00
2018-03-18T20:20:54.550Z,54.90
2018-03-18T20:23:22.192Z,55.30
2018-03-18T20:25:49.764Z,55.40
2018-03-18T20:28:17.354Z,55.70
2018-03-18T20:30:44.906Z,55.90
2018-03-18T20:33:12.436Z,55.90
2018-03-18T20:35:39.981Z,55.90
2018-03-18T20:38:07.563Z,56.10
2018-03-18T20:40:35.339Z,56.40
2018-03-18T20:43:02.885Z,56.30
2018-03-18T20:45:30.444Z,56.40
2018-03-18T20:47:58.009Z,56.90
2018-03-18T20:50:25.554Z,56.90
2018-03-18T20:52:53.084Z,57.30
2018-03-18T20:55:20.656Z,57.30
2018-03-18T20:57:48.538Z,58.00
2018-03-18T21:00:16.076Z,57.50
2018-03-18T21:02:44.396Z,57.70
2018-03-18T21:05:11.935Z,57.70
2018-03-18T21:07:39.471Z,57.70
2018-03-18T21:10:07.022Z,57.90
2018-03-18T21:21:14.988Z,58.50
2018-03-18T21:23:42.539Z,58.50
2018-03-18T21:26:10.216Z,58.50
2018-03-18T21:28:37.750Z,58.80
2018-03-18T21:31:05.284Z,59.10
2018-03-18T21:33:32.828Z,58.80
2018-03-18T21:36:00.370Z,58.80
2018-03-18T21:38:27.908Z,58.80
2018-03-18T21:40:55.456Z,59.40
2018-03-18T21:43:22.986Z,59.30
2018-03-18T21:45:50.531Z,60.40
2018-03-18T21:48:18.066Z,59.60
2018-03-18T21:50:45.613Z,59.40
2018-03-18T21:53:13.176Z,59.70
2018-03-18T21:55:41.411Z,59.80
2018-03-18T21:58:08.942Z,60.20
2018-03-18T22:00:36.489Z,60.30
2018-03-18T22:03:04.802Z,60.20
2018-03-18T22:05:32.349Z,60.10
2018-03-18T22:07:59.897Z,60.40
2018-03-18T22:10:27.452Z,60.40
2018-03-18T22:12:54.981Z,60.20
2018-03-18T23:21:48.181Z,63.30
2018-03-18T23:24:15.808Z,63.20
2018-03-18T23:26:43.348Z,63.40
2018-03-18T23:29:10.879Z,63.90
2018-03-18T23:31:38.405Z,63.80
2018-03-18T23:34:05.929Z,63.90
2018-03-18T23:36:33.472Z,64.20
2018-03-18T23:39:01.808Z,63.60
2018-03-18T23:41:30.056Z,63.40
2018-03-18T23:43:57.584Z,64.10
2018-03-18T23:46:25.127Z,63.70
2018-03-18T23:48:52.658Z,63.60
2018-03-18T23:51:20.192Z,63.40
2018-03-18T23:53:48.029Z,63.10
2018-03-18T23:56:16.337Z,62.50
2018-03-18T23:58:43.881Z,62.50
